Time;durP1;ratioP1;P1;durP2;ratioP2;P2;SDS_P1;SDS_P2;PMS_P1;PMS_P2;Temp;Humidity;BMP_temperature;BMP_pressure;BME280_temperature;BME280_humidity;BME280_pressure;Samples;Min_cycle;Max_cycle;Signal;HPM_P1;HPM_P2
2021/12/26 00:02:13;;;;;;;17.77;5.75;;;;;;;-141.50;100.00;63355.56;4875911;29;20242;-75
2021/12/26 00:04:39;;;;;;;19.05;6.15;;;;;;;-141.50;100.00;63355.56;4891317;29;20071;-79
2021/12/26 00:07:06;;;;;;;17.27;6.70;;;;;;;-141.50;100.00;63355.56;4894140;29;20592;-78
2021/12/26 00:09:33;;;;;;;16.77;6.15;;;;;;;-141.50;100.00;63355.56;4894098;29;20037;-79
2021/12/26 00:11:59;;;;;;;22.10;7.13;;;;;;;-141.50;100.00;63355.56;4921181;29;20048;-79
2021/12/26 00:14:26;;;;;;;20.88;6.45;;;;;;;-141.50;100.00;63355.56;4921179;29;20057;-78
2021/12/26 00:16:52;;;;;;;17.58;5.97;;;;;;;-141.50;100.00;63355.56;4909388;29;20625;-78
2021/12/26 00:19:19;;;;;;;18.70;6.25;;;;;;;-141.50;100.00;63355.56;4895533;29;20049;-78
2021/12/26 00:21:47;;;;;;;15.57;5.82;;;;;;;-141.50;100.00;63355.56;4892856;29;20053;-78
2021/12/26 00:24:13;;;;;;;16.60;5.38;;;;;;;-141.50;100.00;63355.56;4893234;29;20128;-78
2021/12/26 00:26:40;;;;;;;14.10;5.13;;;;;;;-141.50;100.00;63355.56;4876596;29;20143;-79
2021/12/26 00:29:07;;;;;;;13.00;4.93;;;;;;;-141.50;100.00;63355.56;4896189;29;20120;-77
2021/12/26 00:31:34;;;;;;;13.25;5.15;;;;;;;-141.50;100.00;63355.56;4893461;29;20438;-77
2021/12/26 00:34:01;;;;;;;17.60;6.00;;;;;;;-141.50;100.00;63355.56;4892930;29;20060;-77
2021/12/26 00:36:27;;;;;;;14.43;5.93;;;;;;;-141.50;100.00;63355.56;4890787;29;20056;-76
2021/12/26 00:38:54;;;;;;;21.92;7.88;;;;;;;-141.50;100.00;63355.56;4892321;29;21106;-78
2021/12/26 00:41:21;;;;;;;21.85;6.28;;;;;;;-141.50;100.00;63355.56;4891567;29;20060;-78
2021/12/26 00:43:47;;;;;;;28.50;7.35;;;;;;;-141.50;100.00;63355.56;4891726;29;20060;-78
2021/12/26 00:46:15;;;;;;;20.50;7.28;;;;;;;-141.50;100.00;63355.56;4878114;29;20052;-79
2021/12/26 00:48:41;;;;;;;26.45;7.00;;;;;;;-141.50;100.00;63355.56;4894926;29;20139;-79
2021/12/26 00:51:08;;;;;;;27.38;8.35;;;;;;;-141.50;100.00;63355.56;4895042;29;20057;-79
2021/12/26 00:53:34;;;;;;;22.65;7.15;;;;;;;-141.50;100.00;63355.56;4894743;29;20052;-78
2021/12/26 00:56:01;;;;;;;18.95;6.25;;;;;;;-141.50;100.00;63355.56;4893801;29;20088;-78
2021/12/26 00:58:27;;;;;;;18.95;6.47;;;;;;;-141.50;100.00;63355.56;4893251;29;20165;-77
2021/12/26 01:00:54;;;;;;;20.55;6.68;;;;;;;-141.50;100.00;63355.56;4894796;29;20139;-78
2021/12/26 01:03:22;;;;;;;23.55;7.05;;;;;;;-141.50;100.00;63355.56;4878531;29;20095;-78
2021/12/26 01:05:53;;;;;;;19.70;6.97;;;;;;;-141.50;100.00;63355.56;4894038;29;20533;-77
2021/12/26 01:08:25;;;;;;;23.00;6.88;;;;;;;-141.50;100.00;63355.56;4877326;29;20064;-78
2021/12/26 01:10:56;;;;;;;22.13;7.45;;;;;;;-141.50;100.00;63355.56;4893324;29;20116;-79
2021/12/26 01:13:30;;;;;;;22.40;7.00;;;;;;;-141.50;100.00;63355.56;4892729;29;20099;-79
2021/12/26 01:16:00;;;;;;;18.35;6.88;;;;;;;-141.50;100.00;63355.56;4894402;29;20156;-79
2021/12/26 01:18:30;;;;;;;24.63;6.78;;;;;;;-141.50;100.00;63355.56;4877684;29;20073;-77
2021/12/26 01:21:15;;;;;;;20.27;6.75;;;;;;;-141.50;100.00;63355.56;4895179;29;20091;-80
2021/12/26 01:23:47;;;;;;;17.38;6.50;;;;;;;-141.50;100.00;63355.56;4897926;29;20092;-78
2021/12/26 01:26:15;;;;;;;17.63;6.53;;;;;;;-141.50;100.00;63355.56;4895704;29;20416;-79
2021/12/26 01:28:42;;;;;;;20.98;6.75;;;;;;;-141.50;100.00;63355.56;4897263;29;20049;-78
2021/12/26 01:31:09;;;;;;;15.98;5.93;;;;;;;-141.50;100.00;63355.56;4899980;29;20085;-78
2021/12/26 01:33:36;;;;;;;13.75;5.15;;;;;;;-141.50;100.00;63355.56;4900461;29;20058;-78
2021/12/26 01:36:04;;;;;;;13.13;4.45;;;;;;;-141.50;100.00;63355.56;4900320;29;20059;-78
2021/12/26 01:38:30;;;;;;;16.35;5.53;;;;;;;-141.50;100.00;63355.56;4900241;29;20052;-79
2021/12/26 01:40:58;;;;;;;15.75;5.38;;;;;;;-141.50;100.00;63355.56;4901722;29;20056;-78
2021/12/26 01:43:30;;;;;;;10.18;4.38;;;;;;;-141.50;100.00;63355.56;4902069;29;20335;-79
2021/12/26 01:45:56;;;;;;;15.30;4.45;;;;;;;-141.50;100.00;63355.56;4902980;29;20056;-79
2021/12/26 01:48:23;;;;;;;11.93;3.70;;;;;;;-141.50;100.00;63355.56;4901632;29;20060;-79
2021/12/26 01:50:52;;;;;;;13.35;3.90;;;;;;;-141.50;100.00;63355.56;4901045;29;20057;-79
2021/12/26 01:53:22;;;;;;;10.07;3.25;;;;;;;-141.50;100.00;63355.56;4901552;29;20540;-79
2021/12/26 01:55:49;;;;;;;10.27;3.92;;;;;;;-141.50;100.00;63355.56;4883734;29;20112;-78
2021/12/26 01:58:17;;;;;;;11.85;3.83;;;;;;;-141.50;100.00;63355.56;4897010;29;20060;-79
2021/12/26 02:00:48;;;;;;;13.27;4.18;;;;;;;-141.50;100.00;63355.56;4899195;29;20049;-78
2021/12/26 02:03:15;;;;;;;9.80;3.45;;;;;;;-141.50;100.00;63355.56;4896046;29;20767;-78
2021/12/26 02:05:42;;;;;;;12.77;3.92;;;;;;;-141.50;100.00;63355.56;4902899;29;20116;-78
2021/12/26 02:08:09;;;;;;;15.25;3.33;;;;;;;-141.50;100.00;63355.56;4897260;29;20060;-76
2021/12/26 02:10:36;;;;;;;9.52;3.47;;;;;;;-141.50;100.00;63355.56;4897402;29;20738;-78
2021/12/26 02:13:02;;;;;;;9.05;3.53;;;;;;;-141.50;100.00;63355.56;4895129;29;20227;-78
2021/12/26 02:15:30;;;;;;;10.13;3.55;;;;;;;-141.50;100.00;63355.56;4881725;29;20088;-78
2021/12/26 02:17:57;;;;;;;12.77;3.75;;;;;;;-141.50;100.00;63355.56;4900028;29;20052;-79
2021/12/26 02:23:12;;;;;;;10.05;3.85;;;;;;;-141.50;100.00;63355.56;4894297;29;20092;-78
2021/12/26 02:28:16;;;;;;;13.13;3.92;;;;;;;-141.50;100.00;63355.56;4893072;29;20108;-77
2021/12/26 02:30:43;;;;;;;11.90;3.50;;;;;;;-141.50;100.00;63355.56;4894354;29;20518;-79
2021/12/26 02:33:13;;;;;;;6.20;2.90;;;;;;;-141.50;100.00;63355.56;4894584;29;20286;-79
2021/12/26 02:35:41;;;;;;;8.25;2.85;;;;;;;-141.50;100.00;63355.56;4894846;29;20048;-79
2021/12/26 02:38:09;;;;;;;8.77;3.13;;;;;;;-141.50;100.00;63355.56;4895041;29;20057;-77
2021/12/26 02:40:36;;;;;;;10.52;3.17;;;;;;;-141.50;100.00;63355.56;4894669;29;20079;-79
2021/12/26 02:43:04;;;;;;;9.57;3.45;;;;;;;-141.50;100.00;63355.56;4891561;29;20061;-79
2021/12/26 02:45:31;;;;;;;8.98;3.50;;;;;;;-141.50;100.00;63355.56;4877869;29;20626;-76
2021/12/26 02:47:58;;;;;;;6.85;2.70;;;;;;;-141.50;100.00;63355.56;4894116;29;20060;-78
2021/12/26 02:50:28;;;;;;;8.80;3.42;;;;;;;-141.50;100.00;63355.56;4877199;29;20659;-77
2021/12/26 02:52:57;;;;;;;12.25;3.10;;;;;;;-141.50;100.00;63355.56;4893670;29;20060;-79
2021/12/26 02:55:24;;;;;;;11.30;3.08;;;;;;;-141.50;100.00;63355.56;4894186;29;20068;-78
2021/12/26 02:57:57;;;;;;;10.07;3.45;;;;;;;-141.50;100.00;63355.56;4893061;29;20088;-78
2021/12/26 03:00:26;;;;;;;8.73;3.08;;;;;;;-141.50;100.00;63355.56;4897696;29;20462;-78
2021/12/26 03:02:55;;;;;;;10.82;3.35;;;;;;;-141.50;100.00;63355.56;4897693;29;20057;-78
2021/12/26 03:05:26;;;;;;;10.07;3.08;;;;;;;-141.50;100.00;63355.56;4881980;29;20060;-78
2021/12/26 03:07:53;;;;;;;11.27;3.75;;;;;;;-141.50;100.00;63355.56;4896847;29;20083;-78
2021/12/26 03:10:22;;;;;;;12.35;3.50;;;;;;;-141.50;100.00;63355.56;4897386;29;20100;-78
2021/12/26 03:12:57;;;;;;;9.63;3.42;;;;;;;-141.50;100.00;63355.56;4894658;29;20168;-79
2021/12/26 03:15:25;;;;;;;10.13;3.10;;;;;;;-141.50;100.00;63355.56;4897368;29;20120;-78
2021/12/26 03:17:53;;;;;;;6.72;2.83;;;;;;;-141.50;100.00;63355.56;4897566;29;20094;-78
2021/12/26 03:20:27;;;;;;;10.68;3.28;;;;;;;-141.50;100.00;63355.56;4896853;29;20660;-77
2021/12/26 03:22:54;;;;;;;11.93;3.20;;;;;;;-141.50;100.00;63355.56;4895466;29;20437;-77
2021/12/26 03:25:22;;;;;;;11.13;3.38;;;;;;;-141.50;100.00;63355.56;4898027;29;20056;-78
2021/12/26 03:27:50;;;;;;;11.25;3.17;;;;;;;-141.50;100.00;63355.56;4895701;29;20563;-78
2021/12/26 03:30:21;;;;;;;7.95;3.17;;;;;;;-141.50;100.00;63355.56;4896101;29;20048;-78
2021/12/26 03:32:52;;;;;;;12.38;3.28;;;;;;;-141.50;100.00;63355.56;4880368;29;20450;-78
2021/12/26 03:35:20;;;;;;;13.70;3.60;;;;;;;-141.50;100.00;63355.56;4881131;29;20650;-78
2021/12/26 03:37:49;;;;;;;10.82;3.58;;;;;;;-141.50;100.00;63355.56;4898424;29;20059;-78
2021/12/26 03:40:15;;;;;;;9.85;3.53;;;;;;;-141.50;100.00;63355.56;4897227;29;20056;-78
2021/12/26 03:42:42;;;;;;;9.93;3.42;;;;;;;-141.50;100.00;63355.56;4896428;29;20195;-77
2021/12/26 03:45:24;;;;;;;10.32;3.58;;;;;;;-141.50;100.00;63355.56;4897236;29;20253;-78
2021/12/26 03:47:50;;;;;;;8.73;3.28;;;;;;;-141.50;100.00;63355.56;4897569;29;20131;-78
2021/12/26 03:50:19;;;;;;;10.63;3.33;;;;;;;-141.50;100.00;63355.56;4898921;29;20049;-77
2021/12/26 03:52:49;;;;;;;7.90;3.25;;;;;;;-141.50;100.00;63355.56;4897352;29;20091;-77
2021/12/26 03:55:18;;;;;;;10.95;3.85;;;;;;;-141.50;100.00;63355.56;4897595;29;20056;-78
2021/12/26 03:57:45;;;;;;;18.83;3.65;;;;;;;-141.50;100.00;63355.56;4894648;29;20156;-78
2021/12/26 04:00:14;;;;;;;6.95;3.22;;;;;;;-141.50;100.00;63355.56;4896727;29;20129;-78
2021/12/26 04:02:42;;;;;;;7.53;3.33;;;;;;;-141.50;100.00;63355.56;4896895;29;20091;-78
2021/12/26 04:05:10;;;;;;;9.80;3.15;;;;;;;-141.50;100.00;63355.56;4897759;29;20688;-78
2021/12/26 04:07:37;;;;;;;11.65;3.63;;;;;;;-141.50;100.00;63355.56;4895718;29;20087;-78
2021/12/26 04:10:05;;;;;;;9.85;3.70;;;;;;;-141.50;100.00;63355.56;4895667;29;20127;-78
2021/12/26 04:12:36;;;;;;;8.52;3.47;;;;;;;-141.50;100.00;63355.56;4879617;29;20119;-76
2021/12/26 04:15:06;;;;;;;10.63;3.05;;;;;;;-141.50;100.00;63355.56;4899849;29;20080;-79
2021/12/26 04:17:32;;;;;;;6.95;2.85;;;;;;;-141.50;100.00;63355.56;4897221;29;20048;-78
2021/12/26 04:19:59;;;;;;;9.05;3.28;;;;;;;-141.50;100.00;63355.56;4896548;29;20076;-77
2021/12/26 04:22:26;;;;;;;7.72;3.28;;;;;;;-141.50;100.00;63355.56;4894711;29;20056;-77
2021/12/26 04:24:52;;;;;;;9.30;3.13;;;;;;;-141.50;100.00;63355.56;4897028;29;20091;-77
2021/12/26 04:27:21;;;;;;;8.32;3.17;;;;;;;-141.50;100.00;63355.56;4896671;29;20053;-78
2021/12/26 04:29:48;;;;;;;10.90;3.58;;;;;;;-141.50;100.00;63355.56;4895580;29;20067;-77
2021/12/26 04:32:15;;;;;;;9.93;3.08;;;;;;;-141.50;100.00;63355.56;4878729;29;20086;-77
2021/12/26 04:34:41;;;;;;;8.50;2.95;;;;;;;-141.50;100.00;63355.56;4897833;29;20091;-77
2021/12/26 04:37:08;;;;;;;14.55;3.30;;;;;;;-141.50;100.00;63355.56;4897441;29;20048;-77
2021/12/26 04:39:35;;;;;;;10.68;3.67;;;;;;;-141.50;100.00;63355.56;4878912;29;20113;-77
2021/12/26 04:42:01;;;;;;;10.38;3.75;;;;;;;-141.50;100.00;63355.56;4895661;29;20088;-76
2021/12/26 04:44:28;;;;;;;9.60;3.50;;;;;;;-141.50;100.00;63355.56;4878582;29;20722;-77
2021/12/26 04:46:55;;;;;;;11.18;3.85;;;;;;;-141.50;100.00;63355.56;4894771;29;20597;-79
2021/12/26 04:49:22;;;;;;;12.13;4.47;;;;;;;-141.50;100.00;63355.56;4897159;29;20048;-79
2021/12/26 04:51:48;;;;;;;14.00;4.55;;;;;;;-141.50;100.00;63355.56;4897215;29;20076;-78
2021/12/26 04:54:15;;;;;;;14.10;4.60;;;;;;;-141.50;100.00;63355.56;4898265;29;20084;-79
2021/12/26 04:56:42;;;;;;;11.88;4.57;;;;;;;-141.50;100.00;63355.56;4882611;29;20058;-79
2021/12/26 04:59:09;;;;;;;12.10;4.32;;;;;;;-141.50;100.00;63355.56;4900489;29;20084;-79
2021/12/26 05:01:35;;;;;;;12.15;4.10;;;;;;;-141.50;100.00;63355.56;4916104;29;20037;-76
2021/12/26 05:04:03;;;;;;;12.88;4.35;;;;;;;-141.50;100.00;63355.56;4918517;29;20048;-78
2021/12/26 05:06:30;;;;;;;14.27;4.82;;;;;;;-141.50;100.00;63355.56;4918946;29;20044;-78
2021/12/26 05:08:56;;;;;;;12.30;4.22;;;;;;;-141.50;100.00;63355.56;4907262;29;20486;-76
2021/12/26 05:11:23;;;;;;;13.65;3.90;;;;;;;-141.50;100.00;63355.56;4879136;29;20055;-76
2021/12/26 05:13:49;;;;;;;14.25;4.95;;;;;;;-141.50;100.00;63355.56;4894584;29;20470;-78
2021/12/26 05:16:16;;;;;;;15.80;5.60;;;;;;;-141.50;100.00;63355.56;4896528;29;20056;-78
2021/12/26 05:18:43;;;;;;;12.32;4.65;;;;;;;-141.50;100.00;63355.56;4879207;29;20075;-76
2021/12/26 05:21:09;;;;;;;16.77;4.72;;;;;;;-141.50;100.00;63355.56;4894797;29;20080;-78
2021/12/26 05:23:36;;;;;;;17.77;5.03;;;;;;;-141.50;100.00;63355.56;4895013;29;20053;-78
2021/12/26 05:26:02;;;;;;;16.73;4.30;;;;;;;-141.50;100.00;63355.56;4878921;29;20132;-77
2021/12/26 05:28:29;;;;;;;14.48;4.20;;;;;;;-141.50;100.00;63355.56;4894042;29;20411;-78
2021/12/26 05:30:55;;;;;;;11.60;4.32;;;;;;;-141.50;100.00;63355.56;4879806;29;20053;-77
2021/12/26 05:33:22;;;;;;;18.42;4.78;;;;;;;-141.50;100.00;63355.56;4878567;29;20561;-79
2021/12/26 05:35:49;;;;;;;12.85;4.38;;;;;;;-141.50;100.00;63355.56;4895597;29;20485;-76
2021/12/26 05:38:15;;;;;;;13.00;3.92;;;;;;;-141.50;100.00;63355.56;4894307;29;20195;-76
2021/12/26 05:40:42;;;;;;;13.45;4.65;;;;;;;-141.50;100.00;63355.56;4895006;29;20195;-79
2021/12/26 05:43:09;;;;;;;11.52;4.50;;;;;;;-141.50;100.00;63355.56;4876468;29;20080;-77
2021/12/26 05:45:35;;;;;;;11.93;4.57;;;;;;;-141.50;100.00;63355.56;4879839;29;20049;-78
2021/12/26 05:48:02;;;;;;;11.48;4.10;;;;;;;-141.50;100.00;63355.56;4883037;29;20110;-77
2021/12/26 05:50:28;;;;;;;11.07;4.50;;;;;;;-141.50;100.00;63355.56;4903075;29;20045;-78
2021/12/26 05:52:55;;;;;;;12.02;3.95;;;;;;;-141.50;100.00;63355.56;4904709;29;20049;-79
2021/12/26 05:55:22;;;;;;;9.73;3.75;;;;;;;-141.50;100.00;63355.56;4882453;29;20048;-78
2021/12/26 05:57:48;;;;;;;10.20;3.70;;;;;;;-141.50;100.00;63355.56;4877724;29;20084;-79
2021/12/26 06:00:18;;;;;;;14.20;3.97;;;;;;;-141.50;100.00;63355.56;4877632;29;20076;-79
2021/12/26 06:02:45;;;;;;;12.70;4.18;;;;;;;-141.50;100.00;63355.56;4893935;29;20578;-78
2021/12/26 06:05:12;;;;;;;12.65;4.90;;;;;;;-141.50;100.00;63355.56;4878091;29;20052;-79
2021/12/26 06:07:39;;;;;;;14.50;4.75;;;;;;;-141.50;100.00;63355.56;4891925;29;20056;-79
2021/12/26 06:10:07;;;;;;;13.90;4.30;;;;;;;-141.50;100.00;63355.56;4883907;29;20069;-76
2021/12/26 06:12:34;;;;;;;11.25;4.05;;;;;;;-141.50;100.00;63355.56;4885857;29;20135;-77
2021/12/26 06:15:00;;;;;;;16.83;4.55;;;;;;;-141.50;100.00;63355.56;4893451;29;20486;-78
2021/12/26 06:17:27;;;;;;;15.75;4.82;;;;;;;-141.50;100.00;63355.56;4894248;29;20143;-78
2021/12/26 06:19:53;;;;;;;12.15;4.55;;;;;;;-141.50;100.00;63355.56;4893693;29;20497;-77
2021/12/26 06:22:20;;;;;;;14.13;4.60;;;;;;;-141.50;100.00;63355.56;4891908;29;20092;-78
2021/12/26 06:24:46;;;;;;;14.13;4.15;;;;;;;-141.50;100.00;63355.56;4877913;29;20057;-78
2021/12/26 06:27:13;;;;;;;14.02;4.95;;;;;;;-141.50;100.00;63355.56;4893799;29;20061;-77
2021/12/26 06:29:39;;;;;;;14.20;5.13;;;;;;;-141.50;100.00;63355.56;4892940;29;20573;-79
2021/12/26 06:32:06;;;;;;;10.82;4.35;;;;;;;-141.50;100.00;63355.56;4894509;29;20167;-79
2021/12/26 06:34:33;;;;;;;13.13;4.50;;;;;;;-141.50;100.00;63355.56;4893406;29;20517;-78
2021/12/26 06:37:00;;;;;;;16.67;5.22;;;;;;;-141.50;100.00;63355.56;4894604;29;20048;-79
2021/12/26 06:39:26;;;;;;;12.95;5.05;;;;;;;-141.50;100.00;63355.56;4893465;29;20049;-79
2021/12/26 06:41:53;;;;;;;15.32;4.72;;;;;;;-141.50;100.00;63355.56;4894083;29;20108;-79
2021/12/26 06:44:19;;;;;;;16.02;5.22;;;;;;;-141.50;100.00;63355.56;4893291;29;20108;-79
2021/12/26 06:46:46;;;;;;;14.82;5.57;;;;;;;-141.50;100.00;63355.56;4894787;29;20048;-78
2021/12/26 06:49:16;;;;;;;13.23;5.13;;;;;;;-141.50;100.00;63355.56;4889956;29;20049;-77
2021/12/26 06:51:44;;;;;;;17.10;5.43;;;;;;;-141.50;100.00;63355.56;4894314;29;20053;-77
2021/12/26 06:54:11;;;;;;;16.45;5.70;;;;;;;-141.50;100.00;63355.56;4893110;29;20072;-78
2021/12/26 06:56:38;;;;;;;17.70;5.50;;;;;;;-141.50;100.00;63355.56;4892977;29;20064;-78
2021/12/26 06:59:04;;;;;;;17.52;5.53;;;;;;;-141.50;100.00;63355.56;4892524;29;20104;-79
2021/12/26 07:01:32;;;;;;;19.42;6.00;;;;;;;-141.50;100.00;63355.56;4892582;29;20079;-80
2021/12/26 07:03:59;;;;;;;17.45;5.47;;;;;;;-141.50;100.00;63355.56;4887215;29;20060;-78
2021/12/26 07:06:26;;;;;;;14.07;5.50;;;;;;;-141.50;100.00;63355.56;4876268;29;20163;-77
2021/12/26 07:08:52;;;;;;;19.13;5.50;;;;;;;-141.50;100.00;63355.56;4875120;29;20056;-77
2021/12/26 07:11:19;;;;;;;15.23;5.38;;;;;;;-141.50;100.00;63355.56;4875138;29;20076;-78
2021/12/26 07:13:45;;;;;;;16.38;5.65;;;;;;;-141.50;100.00;63355.56;4874834;29;20082;-78
2021/12/26 07:16:12;;;;;;;17.02;5.55;;;;;;;-141.50;100.00;63355.56;4874001;29;20064;-77
2021/12/26 07:18:38;;;;;;;17.73;5.35;;;;;;;-141.50;100.00;63355.56;4874238;29;20060;-78
2021/12/26 07:21:05;;;;;;;15.05;5.47;;;;;;;-141.50;100.00;63355.56;4873910;29;20053;-78
2021/12/26 07:23:31;;;;;;;16.20;5.40;;;;;;;-141.50;100.00;63355.56;4874804;29;20056;-78
2021/12/26 07:25:58;;;;;;;15.18;5.07;;;;;;;-141.50;100.00;63355.56;4877284;29;20417;-77
2021/12/26 07:28:25;;;;;;;13.60;5.38;;;;;;;-141.50;100.00;63355.56;4871919;29;20178;-78
2021/12/26 07:30:52;;;;;;;17.95;5.63;;;;;;;-141.50;100.00;63355.56;4865390;29;20609;-77
2021/12/26 07:33:18;;;;;;;17.75;5.38;;;;;;;-141.50;100.00;63355.56;4892914;29;20057;-77
2021/12/26 07:35:45;;;;;;;16.55;5.45;;;;;;;-141.50;100.00;63355.56;4877898;29;20430;-78
2021/12/26 07:38:11;;;;;;;15.98;6.05;;;;;;;-141.50;100.00;63355.56;4891797;29;20053;-78
2021/12/26 07:40:38;;;;;;;19.40;5.53;;;;;;;-141.50;100.00;63355.56;4891736;29;20176;-79
2021/12/26 07:43:04;;;;;;;20.38;5.35;;;;;;;-141.50;100.00;63355.56;4891141;29;20107;-78
2021/12/26 07:45:31;;;;;;;16.52;5.28;;;;;;;-141.50;100.00;63355.56;4895274;29;20056;-78
2021/12/26 07:47:57;;;;;;;13.57;5.07;;;;;;;-141.50;100.00;63355.56;4895731;29;20091;-79
2021/12/26 07:50:26;;;;;;;18.98;6.05;;;;;;;-141.50;100.00;63355.56;4896910;29;20048;-76
2021/12/26 07:52:53;;;;;;;15.45;5.80;;;;;;;-141.50;100.00;63355.56;4894975;29;20056;-78
2021/12/26 07:55:20;;;;;;;15.75;5.50;;;;;;;-141.50;100.00;63355.56;4897218;29;20127;-79
2021/12/26 07:57:49;;;;;;;19.55;6.50;;;;;;;-141.50;100.00;63355.56;4895413;29;20060;-77
2021/12/26 08:00:18;;;;;;;20.80;6.40;;;;;;;-141.50;100.00;63355.56;4895314;29;20057;-76
2021/12/26 08:02:45;;;;;;;18.23;6.30;;;;;;;-141.50;100.00;63355.56;4897130;29;20080;-77
2021/12/26 08:05:13;;;;;;;16.77;6.55;;;;;;;-141.50;100.00;63355.56;4897617;29;20056;-78
2021/12/26 08:07:40;;;;;;;15.60;6.22;;;;;;;-141.50;100.00;63355.56;4897266;29;20084;-78
2021/12/26 08:10:07;;;;;;;19.92;7.53;;;;;;;-141.50;100.00;63355.56;4897318;29;20149;-78
2021/12/26 08:12:34;;;;;;;17.55;6.40;;;;;;;-141.50;100.00;63355.56;4895992;29;20084;-77
2021/12/26 08:15:02;;;;;;;20.27;7.47;;;;;;;-141.50;100.00;63355.56;4897808;29;20641;-78
2021/12/26 08:17:29;;;;;;;20.25;8.35;;;;;;;-141.50;100.00;63355.56;4897267;29;20060;-78
2021/12/26 08:19:57;;;;;;;20.98;7.45;;;;;;;-141.50;100.00;63355.56;4896566;29;20082;-77
2021/12/26 08:22:24;;;;;;;19.90;7.32;;;;;;;-141.50;100.00;63355.56;4896148;29;20140;-79
2021/12/26 08:24:51;;;;;;;17.48;7.05;;;;;;;-141.50;100.00;63355.56;4895716;29;20059;-78
2021/12/26 08:27:18;;;;;;;21.35;7.32;;;;;;;-141.50;100.00;63355.56;4914576;29;20147;-78
2021/12/26 08:29:45;;;;;;;18.40;7.47;;;;;;;-141.50;100.00;63355.56;4914767;29;20123;-78
2021/12/26 08:32:14;;;;;;;21.00;8.18;;;;;;;-141.50;100.00;63355.56;4915201;29;20142;-78
2021/12/26 08:34:42;;;;;;;20.55;6.93;;;;;;;-141.50;100.00;63355.56;4900497;29;20051;-79
2021/12/26 08:37:08;;;;;;;20.63;7.65;;;;;;;-141.50;100.00;63355.56;4916964;29;20513;-79
2021/12/26 08:39:39;;;;;;;20.67;8.60;;;;;;;-141.50;100.00;63355.56;4875283;29;20466;-76
2021/12/26 08:42:10;;;;;;;22.45;8.20;;;;;;;-141.50;100.00;63355.56;4894973;29;20122;-79
2021/12/26 08:44:38;;;;;;;19.40;7.70;;;;;;;-141.50;100.00;63355.56;4891193;29;20064;-78
2021/12/26 08:47:06;;;;;;;20.08;8.52;;;;;;;-141.50;100.00;63355.56;4906537;29;20151;-77
2021/12/26 08:49:32;;;;;;;22.75;8.63;;;;;;;-141.50;100.00;63355.56;4911924;29;20088;-78
2021/12/26 08:51:59;;;;;;;23.20;8.65;;;;;;;-141.50;100.00;63355.56;4911887;29;20083;-78
2021/12/26 08:54:28;;;;;;;23.10;8.90;;;;;;;-141.50;100.00;63355.56;4911926;29;20052;-78
2021/12/26 08:56:54;;;;;;;22.55;9.45;;;;;;;-141.50;100.00;63355.56;4893921;29;20048;-78
2021/12/26 08:59:24;;;;;;;24.80;9.73;;;;;;;-141.50;100.00;63355.56;4895495;29;20156;-76
2021/12/26 09:01:51;;;;;;;26.85;10.23;;;;;;;-141.50;100.00;63355.56;4891429;29;20076;-78
2021/12/26 09:04:17;;;;;;;21.73;9.55;;;;;;;-141.50;100.00;63355.56;4893460;29;20096;-78
2021/12/26 09:06:44;;;;;;;18.70;9.23;;;;;;;-141.50;100.00;63355.56;4893335;29;20573;-78
2021/12/26 09:09:11;;;;;;;23.63;9.30;;;;;;;-141.50;100.00;63355.56;4878056;29;20201;-78
2021/12/26 09:11:37;;;;;;;20.88;9.35;;;;;;;-141.50;100.00;63355.56;4874030;29;20111;-79
2021/12/26 09:14:04;;;;;;;23.67;10.52;;;;;;;-141.50;100.00;63355.56;4857241;29;20407;-79
2021/12/26 09:16:33;;;;;;;21.55;9.32;;;;;;;-141.50;100.00;63355.56;4859804;29;20123;-79
2021/12/26 09:19:02;;;;;;;22.95;9.80;;;;;;;-141.50;100.00;63355.56;4859300;29;20136;-80
2021/12/26 09:21:29;;;;;;;21.77;10.20;;;;;;;-141.50;100.00;63355.56;4860692;29;20097;-80
2021/12/26 09:23:55;;;;;;;22.88;10.77;;;;;;;-141.50;100.00;63355.56;4876377;29;20472;-79
2021/12/26 09:26:22;;;;;;;26.25;11.15;;;;;;;-141.50;100.00;63355.56;4875452;29;20076;-79
2021/12/26 09:28:49;;;;;;;35.72;15.57;;;;;;;-141.50;100.00;63355.56;4873547;29;20861;-79
2021/12/26 09:31:16;;;;;;;93.72;35.45;;;;;;;-141.50;100.00;63355.56;4875388;29;20120;-80
2021/12/26 09:33:43;;;;;;;79.30;30.90;;;;;;;-141.50;100.00;63355.56;4869889;29;20714;-79
2021/12/26 09:36:09;;;;;;;77.10;31.75;;;;;;;-141.50;100.00;63355.56;4907248;29;20056;-80
2021/12/26 09:38:36;;;;;;;72.72;30.52;;;;;;;-141.50;100.00;63355.56;4911142;29;20102;-78
2021/12/26 09:41:03;;;;;;;62.03;28.40;;;;;;;-141.50;100.00;63355.56;4893716;29;20060;-80
2021/12/26 09:43:30;;;;;;;62.20;25.55;;;;;;;-141.50;100.00;63355.56;4892270;29;20135;-79
2021/12/26 09:45:56;;;;;;;60.20;25.77;;;;;;;-141.50;100.00;63355.56;4910930;29;20143;-81
2021/12/26 09:48:23;;;;;;;51.28;24.08;;;;;;;-141.50;100.00;63355.56;4910924;29;20067;-79
2021/12/26 09:50:50;;;;;;;42.15;19.88;;;;;;;-141.50;100.00;63355.56;4910170;29;20060;-79
2021/12/26 09:53:16;;;;;;;42.05;19.20;;;;;;;-141.50;100.00;63355.56;4911182;29;20151;-80
2021/12/26 09:55:43;;;;;;;37.03;16.83;;;;;;;-141.50;100.00;63355.56;4910946;29;20098;-80
2021/12/26 09:58:09;;;;;;;32.13;14.25;;;;;;;-141.50;100.00;63355.56;4923710;29;20048;-79
2021/12/26 10:00:39;;;;;;;24.77;11.65;;;;;;;-141.50;100.00;63355.56;4921697;29;20063;-78
2021/12/26 10:03:18;;;;;;;27.95;11.10;;;;;;;-141.50;100.00;63355.56;4905805;29;20071;-79
2021/12/26 10:06:02;;;;;;;18.42;8.50;;;;;;;-141.50;100.00;63355.56;4916295;29;20051;-79
2021/12/26 10:08:33;;;;;;;15.98;7.75;;;;;;;-141.50;100.00;63355.56;4903697;29;20060;-79
2021/12/26 10:11:09;;;;;;;19.58;8.20;;;;;;;-141.50;100.00;63355.56;4893006;29;20060;-79
2021/12/26 10:13:38;;;;;;;15.05;6.85;;;;;;;-141.50;100.00;63355.56;4891557;29;20135;-78
2021/12/26 10:16:05;;;;;;;15.65;6.82;;;;;;;-141.50;100.00;63355.56;4892853;29;20060;-79
2021/12/26 10:18:31;;;;;;;17.08;6.85;;;;;;;-141.50;100.00;63355.56;4889801;29;20060;-78
2021/12/26 10:20:58;;;;;;;15.82;7.20;;;;;;;-141.50;100.00;63355.56;4891005;29;20076;-78
2021/12/26 10:23:26;;;;;;;14.70;5.35;;;;;;;-141.50;100.00;63355.56;4892761;29;20052;-78
2021/12/26 10:25:52;;;;;;;15.10;5.47;;;;;;;-141.50;100.00;63355.56;4890572;29;20517;-79
2021/12/26 10:28:19;;;;;;;11.43;5.20;;;;;;;-141.50;100.00;63355.56;4889160;29;20104;-78
2021/12/26 10:30:46;;;;;;;13.73;4.97;;;;;;;-141.50;100.00;63355.56;4892310;29;20129;-78
2021/12/26 10:33:17;;;;;;;11.25;4.10;;;;;;;-141.50;100.00;63355.56;4890399;29;20116;-77
2021/12/26 10:35:44;;;;;;;9.45;4.28;;;;;;;-141.50;100.00;63355.56;4888619;29;20052;-78
2021/12/26 10:38:15;;;;;;;13.43;4.60;;;;;;;-141.50;100.00;63355.56;4909336;29;20126;-77
2021/12/26 10:40:49;;;;;;;13.15;5.07;;;;;;;-141.50;100.00;63355.56;4910459;29;20091;-78
2021/12/26 10:43:15;;;;;;;9.80;4.50;;;;;;;-141.50;100.00;63355.56;4888032;29;20116;-78
2021/12/26 10:45:42;;;;;;;11.82;4.78;;;;;;;-141.50;100.00;63355.56;4888429;29;20589;-78
2021/12/26 10:48:09;;;;;;;12.13;4.80;;;;;;;-141.50;100.00;63355.56;4886848;29;20160;-76
2021/12/26 10:50:40;;;;;;;10.45;4.15;;;;;;;-141.50;100.00;63355.56;4890414;29;20505;-78
2021/12/26 10:53:08;;;;;;;14.15;5.07;;;;;;;-141.50;100.00;63355.56;4890577;29;20056;-78
2021/12/26 10:55:36;;;;;;;11.43;4.32;;;;;;;-141.50;100.00;63355.56;4890479;29;20473;-79
2021/12/26 10:58:05;;;;;;;12.20;4.68;;;;;;;-141.50;100.00;63355.56;4872719;29;20127;-78
2021/12/26 11:00:36;;;;;;;16.00;5.03;;;;;;;-141.50;100.00;63355.56;4890239;29;20486;-79
2021/12/26 11:03:09;;;;;;;9.85;3.97;;;;;;;-141.50;100.00;63355.56;4890032;29;20083;-79
2021/12/26 11:05:41;;;;;;;9.60;3.90;;;;;;;-141.50;100.00;63355.56;4891547;29;20476;-78
2021/12/26 11:08:16;;;;;;;12.27;3.97;;;;;;;-141.50;100.00;63355.56;4889928;29;20063;-78
2021/12/26 11:10:48;;;;;;;12.10;3.80;;;;;;;-141.50;100.00;63355.56;4892708;29;20084;-78